Aeroporto :
LOGIN :

Iscrizione | Disclaimer

   EN    FR    IT 

 










Sommario :    VFR   VFR Marginale   IFR   IFR Intensivo   IFR Molto Intensivo
Visibilità : 
Base nubi : 
>= 8 km
>= 3000ft
5 / 8 km
1000 / 3000 ft
1500m / 5 km
500 / 1000 ft
800 / 1500m
200 / 500 ft
< 800m
< 200 ft
Simboli :   Temporali  Nebbia  Neve Forte  Precipitazioni Forti  Vento > 20 kt
SIGMETs :   Varie  Temporali  Ghiacco  Turbolenza  Onda orograficha  Ceneri Vulcaniche






- Altitudine del aeroporto : 1682 ft
- Codice IATA : VIT


LEVT - Vitoria Gasteiz

ULTIMO METAR :
  • 211600Z 08002KT CAVOK 15/05 Q1029

METARs OBSOLETI :
  • 211530Z 04002KT CAVOK 15/06 Q1029
  • 211500Z 09001KT CAVOK 14/06 Q1030
  • 211430Z 11001KT CAVOK 14/06 Q1030
  • 211400Z 27001KT CAVOK 13/06 Q1030
  • 211330Z 10003KT CAVOK 12/06 Q1030

TAF TAF LEVT
Valido dal 21 a 12 ore il 22 a 12 ore UTC


211100Z 2112/2212 VRB05KT 9999 BKN020 TX13/2115Z TNM01/2202Z
TEMPO 2115/2121 04010KT
PROB40
TEMPO 2202/2207 0350 FG VV001



MetMap, La meteo Aeronautica in un colpo d'occhio ! - Copyright ORBIFLY Dicembre 2007 - Disclaimer

ORBIFLY MET'MAP TEAM :

Programmazione e sviluppo : Alexandra Zaïnal
Concezione : Baudouin d'Aumeries
Aiuto per la programmazione : Marc-Olivier Méhu
Supporto tecnico e logistico : Manuel Goepfert
Aiuto per la traduzione : Arnaldo La Scala

Contatto : metmap@orbifly.com




FONTI E CREDITI :

   NOAA